sensor_id;sensor_type;location;lat;lon;timestamp;temperature;humidity
42841;DHT22;28491;46.898;7.660;2023-01-16T00:00:00;-1.10;95.80
42841;DHT22;28491;46.898;7.660;2023-01-16T00:02:26;-1.20;95.40
42841;DHT22;28491;46.898;7.660;2023-01-16T00:04:51;-1.20;95.50
42841;DHT22;28491;46.898;7.660;2023-01-16T00:07:17;-1.20;95.30
42841;DHT22;28491;46.898;7.660;2023-01-16T00:09:42;-1.20;95.60
42841;DHT22;28491;46.898;7.660;2023-01-16T00:12:08;-1.20;95.70
42841;DHT22;28491;46.898;7.660;2023-01-16T00:14:33;-1.20;95.70
42841;DHT22;28491;46.898;7.660;2023-01-16T00:16:59;-1.30;95.80
42841;DHT22;28491;46.898;7.660;2023-01-16T00:19:24;-1.30;95.80
42841;DHT22;28491;46.898;7.660;2023-01-16T00:21:50;-1.40;95.70
42841;DHT22;28491;46.898;7.660;2023-01-16T00:24:15;-1.30;95.70
42841;DHT22;28491;46.898;7.660;2023-01-16T00:26:41;-1.50;95.30
42841;DHT22;28491;46.898;7.660;2023-01-16T00:29:06;-1.60;95.00
42841;DHT22;28491;46.898;7.660;2023-01-16T00:31:32;-1.60;95.70
42841;DHT22;28491;46.898;7.660;2023-01-16T00:33:57;-1.50;96.10
42841;DHT22;28491;46.898;7.660;2023-01-16T00:36:23;-1.60;95.70
42841;DHT22;28491;46.898;7.660;2023-01-16T00:38:48;-1.70;95.80
42841;DHT22;28491;46.898;7.660;2023-01-16T00:41:14;-1.60;96.20
42841;DHT22;28491;46.898;7.660;2023-01-16T00:43:39;-1.60;96.30
42841;DHT22;28491;46.898;7.660;2023-01-16T00:46:05;-1.50;96.50
42841;DHT22;28491;46.898;7.660;2023-01-16T00:48:31;-1.50;96.60
42841;DHT22;28491;46.898;7.660;2023-01-16T00:50:56;-1.50;96.50
42841;DHT22;28491;46.898;7.660;2023-01-16T00:53:22;-1.50;96.60
42841;DHT22;28491;46.898;7.660;2023-01-16T00:55:49;-1.50;96.30
42841;DHT22;28491;46.898;7.660;2023-01-16T00:58:15;-1.60;96.00
42841;DHT22;28491;46.898;7.660;2023-01-16T01:00:41;-1.50;96.10
42841;DHT22;28491;46.898;7.660;2023-01-16T01:03:06;-1.50;96.00
42841;DHT22;28491;46.898;7.660;2023-01-16T01:05:35;-1.50;95.90
42841;DHT22;28491;46.898;7.660;2023-01-16T01:08:01;-1.40;96.00
42841;DHT22;28491;46.898;7.660;2023-01-16T01:10:27;-1.40;95.90
42841;DHT22;28491;46.898;7.660;2023-01-16T01:12:55;-1.40;95.80
42841;DHT22;28491;46.898;7.660;2023-01-16T01:15:22;-1.40;95.60
42841;DHT22;28491;46.898;7.660;2023-01-16T01:17:48;-1.40;95.60
42841;DHT22;28491;46.898;7.660;2023-01-16T01:20:13;-1.50;95.20
42841;DHT22;28491;46.898;7.660;2023-01-16T01:22:39;-1.60;94.90
42841;DHT22;28491;46.898;7.660;2023-01-16T01:25:05;-1.50;95.70
42841;DHT22;28491;46.898;7.660;2023-01-16T01:27:30;-1.40;96.10
42841;DHT22;28491;46.898;7.660;2023-01-16T01:29:56;-1.20;96.40
42841;DHT22;28491;46.898;7.660;2023-01-16T01:32:21;-1.20;96.20
42841;DHT22;28491;46.898;7.660;2023-01-16T01:34:47;-1.10;95.90
42841;DHT22;28491;46.898;7.660;2023-01-16T01:37:12;-1.10;94.80
42841;DHT22;28491;46.898;7.660;2023-01-16T01:39:38;-1.30;94.30
42841;DHT22;28491;46.898;7.660;2023-01-16T01:42:03;-1.20;94.90
42841;DHT22;28491;46.898;7.660;2023-01-16T01:45:01;-1.10;94.80
42841;DHT22;28491;46.898;7.660;2023-01-16T01:47:34;-1.20;94.00
42841;DHT22;28491;46.898;7.660;2023-01-16T01:50:04;-1.30;94.10
42841;DHT22;28491;46.898;7.660;2023-01-16T01:52:35;-1.30;94.90
42841;DHT22;28491;46.898;7.660;2023-01-16T01:55:04;-1.30;95.40
42841;DHT22;28491;46.898;7.660;2023-01-16T01:57:37;-1.30;95.40
42841;DHT22;28491;46.898;7.660;2023-01-16T02:00:08;-1.40;95.20
42841;DHT22;28491;46.898;7.660;2023-01-16T02:02:38;-1.30;95.30
42841;DHT22;28491;46.898;7.660;2023-01-16T02:05:07;-1.20;95.40
42841;DHT22;28491;46.898;7.660;2023-01-16T02:07:33;-1.40;94.60
42841;DHT22;28491;46.898;7.660;2023-01-16T02:10:45;-1.40;94.30
42841;DHT22;28491;46.898;7.660;2023-01-16T02:12:53;-1.50;94.00
42841;DHT22;28491;46.898;7.660;2023-01-16T02:15:19;-1.60;94.00
42841;DHT22;28491;46.898;7.660;2023-01-16T02:17:45;-1.50;94.70
42841;DHT22;28491;46.898;7.660;2023-01-16T02:20:32;-1.40;94.90
42841;DHT22;28491;46.898;7.660;2023-01-16T02:26:12;-1.50;93.50
42841;DHT22;28491;46.898;7.660;2023-01-16T02:29:15;-1.50;93.50
42841;DHT22;28491;46.898;7.660;2023-01-16T02:37:24;-1.50;92.10
42841;DHT22;28491;46.898;7.660;2023-01-16T02:42:44;-1.50;91.60
42841;DHT22;28491;46.898;7.660;2023-01-16T02:48:08;-1.50;91.50
42841;DHT22;28491;46.898;7.660;2023-01-16T02:56:33;-1.80;91.90
42841;DHT22;28491;46.898;7.660;2023-01-16T02:59:01;-1.90;92.20
42841;DHT22;28491;46.898;7.660;2023-01-16T03:01:26;-1.90;93.00
42841;DHT22;28491;46.898;7.660;2023-01-16T03:09:34;-1.90;93.20
42841;DHT22;28491;46.898;7.660;2023-01-16T03:12:33;-1.80;93.50
42841;DHT22;28491;46.898;7.660;2023-01-16T03:15:11;-1.70;93.30
42841;DHT22;28491;46.898;7.660;2023-01-16T03:20:34;-1.80;92.50
42841;DHT22;28491;46.898;7.660;2023-01-16T03:23:14;-1.80;92.60
42841;DHT22;28491;46.898;7.660;2023-01-16T03:25:58;-1.90;93.10
42841;DHT22;28491;46.898;7.660;2023-01-16T03:28:49;-1.80;93.40
42841;DHT22;28491;46.898;7.660;2023-01-16T03:31:29;-1.80;93.60
42841;DHT22;28491;46.898;7.660;2023-01-16T03:34:10;-1.80;92.80
42841;DHT22;28491;46.898;7.660;2023-01-16T03:39:10;-1.90;93.10
42841;DHT22;28491;46.898;7.660;2023-01-16T03:41:38;-1.90;92.80
42841;DHT22;28491;46.898;7.660;2023-01-16T03:44:08;-2.00;92.00
42841;DHT22;28491;46.898;7.660;2023-01-16T03:46:44;-1.90;92.30
42841;DHT22;28491;46.898;7.660;2023-01-16T03:49:15;-1.90;92.20
42841;DHT22;28491;46.898;7.660;2023-01-16T03:51:47;-1.90;91.90
42841;DHT22;28491;46.898;7.660;2023-01-16T03:54:29;-1.80;92.00
42841;DHT22;28491;46.898;7.660;2023-01-16T03:59:34;-1.70;91.20
42841;DHT22;28491;46.898;7.660;2023-01-16T04:02:13;-1.80;91.00
42841;DHT22;28491;46.898;7.660;2023-01-16T04:04:44;-1.90;90.90
42841;DHT22;28491;46.898;7.660;2023-01-16T04:07:29;-1.90;91.00
42841;DHT22;28491;46.898;7.660;2023-01-16T04:10:00;-1.80;91.20
42841;DHT22;28491;46.898;7.660;2023-01-16T04:12:32;-1.90;90.60
42841;DHT22;28491;46.898;7.660;2023-01-16T04:15:03;-1.90;90.80
42841;DHT22;28491;46.898;7.660;2023-01-16T04:17:29;-1.90;91.10
42841;DHT22;28491;46.898;7.660;2023-01-16T04:19:55;-1.80;90.70
42841;DHT22;28491;46.898;7.660;2023-01-16T04:22:26;-1.80;90.60
42841;DHT22;28491;46.898;7.660;2023-01-16T04:24:55;-1.80;90.50
42841;DHT22;28491;46.898;7.660;2023-01-16T04:27:21;-1.90;90.40
42841;DHT22;28491;46.898;7.660;2023-01-16T04:29:47;-1.80;90.70
42841;DHT22;28491;46.898;7.660;2023-01-16T04:32:13;-1.90;90.60
42841;DHT22;28491;46.898;7.660;2023-01-16T04:34:39;-2.00;90.80
42841;DHT22;28491;46.898;7.660;2023-01-16T04:37:05;-2.00;91.40
42841;DHT22;28491;46.898;7.660;2023-01-16T04:39:31;-2.00;91.50
42841;DHT22;28491;46.898;7.660;2023-01-16T04:41:57;-2.10;91.30
42841;DHT22;28491;46.898;7.660;2023-01-16T04:44:23;-2.10;91.10
42841;DHT22;28491;46.898;7.660;2023-01-16T04:46:48;-2.20;90.90
42841;DHT22;28491;46.898;7.660;2023-01-16T04:49:14;-2.30;91.20
42841;DHT22;28491;46.898;7.660;2023-01-16T04:51:39;-2.30;91.80
42841;DHT22;28491;46.898;7.660;2023-01-16T04:54:06;-2.40;92.20
42841;DHT22;28491;46.898;7.660;2023-01-16T04:56:32;-2.10;93.20
42841;DHT22;28491;46.898;7.660;2023-01-16T04:58:58;-2.10;92.50
42841;DHT22;28491;46.898;7.660;2023-01-16T05:01:24;-2.00;92.30
42841;DHT22;28491;46.898;7.660;2023-01-16T05:03:49;-1.90;91.20
42841;DHT22;28491;46.898;7.660;2023-01-16T05:06:16;-1.90;91.20
42841;DHT22;28491;46.898;7.660;2023-01-16T05:08:41;-1.90;91.10
42841;DHT22;28491;46.898;7.660;2023-01-16T05:11:07;-1.90;91.10
42841;DHT22;28491;46.898;7.660;2023-01-16T05:13:32;-1.80;90.90
42841;DHT22;28491;46.898;7.660;2023-01-16T05:15:58;-1.80;90.30
42841;DHT22;28491;46.898;7.660;2023-01-16T05:18:24;-1.80;89.60
42841;DHT22;28491;46.898;7.660;2023-01-16T05:20:49;-1.80;86.60
42841;DHT22;28491;46.898;7.660;2023-01-16T05:23:15;-1.90;86.00
42841;DHT22;28491;46.898;7.660;2023-01-16T05:25:40;-1.90;86.90
42841;DHT22;28491;46.898;7.660;2023-01-16T05:28:06;-2.00;87.30
42841;DHT22;28491;46.898;7.660;2023-01-16T05:30:32;-2.00;88.70
42841;DHT22;28491;46.898;7.660;2023-01-16T05:32:58;-1.90;88.80
42841;DHT22;28491;46.898;7.660;2023-01-16T05:35:23;-2.00;89.00
42841;DHT22;28491;46.898;7.660;2023-01-16T05:37:49;-1.90;89.10
42841;DHT22;28491;46.898;7.660;2023-01-16T05:40:14;-2.00;90.00
42841;DHT22;28491;46.898;7.660;2023-01-16T05:42:43;-2.00;90.20
42841;DHT22;28491;46.898;7.660;2023-01-16T05:45:09;-2.00;90.20
42841;DHT22;28491;46.898;7.660;2023-01-16T05:47:35;-1.90;90.20
42841;DHT22;28491;46.898;7.660;2023-01-16T05:50:00;-2.00;89.10
42841;DHT22;28491;46.898;7.660;2023-01-16T05:52:26;-1.90;89.10
42841;DHT22;28491;46.898;7.660;2023-01-16T05:54:53;-2.00;89.70
42841;DHT22;28491;46.898;7.660;2023-01-16T05:57:19;-2.00;90.40
42841;DHT22;28491;46.898;7.660;2023-01-16T05:59:50;-2.00;90.60
42841;DHT22;28491;46.898;7.660;2023-01-16T06:02:20;-2.00;90.70
42841;DHT22;28491;46.898;7.660;2023-01-16T06:04:46;-2.00;90.70
42841;DHT22;28491;46.898;7.660;2023-01-16T06:07:12;-2.10;90.70
42841;DHT22;28491;46.898;7.660;2023-01-16T06:09:38;-2.00;90.60
42841;DHT22;28491;46.898;7.660;2023-01-16T06:12:04;-2.00;90.10
42841;DHT22;28491;46.898;7.660;2023-01-16T06:14:30;-2.10;89.00
42841;DHT22;28491;46.898;7.660;2023-01-16T06:16:55;-2.10;88.30
42841;DHT22;28491;46.898;7.660;2023-01-16T06:19:21;-2.10;88.30
42841;DHT22;28491;46.898;7.660;2023-01-16T06:21:46;-2.10;87.90
42841;DHT22;28491;46.898;7.660;2023-01-16T06:24:12;-2.10;88.20
42841;DHT22;28491;46.898;7.660;2023-01-16T06:26:37;-2.10;88.90
42841;DHT22;28491;46.898;7.660;2023-01-16T06:29:03;-2.10;89.90
42841;DHT22;28491;46.898;7.660;2023-01-16T06:31:28;-2.30;89.70
42841;DHT22;28491;46.898;7.660;2023-01-16T06:33:54;-2.30;90.10
42841;DHT22;28491;46.898;7.660;2023-01-16T06:36:20;-2.30;90.80
42841;DHT22;28491;46.898;7.660;2023-01-16T06:38:45;-2.30;91.10
42841;DHT22;28491;46.898;7.660;2023-01-16T06:41:11;-2.20;91.10
42841;DHT22;28491;46.898;7.660;2023-01-16T06:43:36;-2.20;91.40
42841;DHT22;28491;46.898;7.660;2023-01-16T06:46:02;-2.10;91.50
42841;DHT22;28491;46.898;7.660;2023-01-16T06:48:27;-2.10;91.40
42841;DHT22;28491;46.898;7.660;2023-01-16T06:50:53;-2.20;91.30
42841;DHT22;28491;46.898;7.660;2023-01-16T06:53:19;-2.20;91.60
42841;DHT22;28491;46.898;7.660;2023-01-16T06:55:44;-2.20;91.70
42841;DHT22;28491;46.898;7.660;2023-01-16T06:58:10;-2.10;91.80
42841;DHT22;28491;46.898;7.660;2023-01-16T07:00:36;-2.10;91.00
42841;DHT22;28491;46.898;7.660;2023-01-16T07:03:03;-2.00;90.70
42841;DHT22;28491;46.898;7.660;2023-01-16T07:05:29;-2.10;90.30
42841;DHT22;28491;46.898;7.660;2023-01-16T07:07:55;-2.10;90.50
42841;DHT22;28491;46.898;7.660;2023-01-16T07:10:21;-2.00;91.30
42841;DHT22;28491;46.898;7.660;2023-01-16T07:12:48;-2.00;92.30
42841;DHT22;28491;46.898;7.660;2023-01-16T07:15:14;-2.00;91.90
42841;DHT22;28491;46.898;7.660;2023-01-16T07:17:59;-2.00;91.30
42841;DHT22;28491;46.898;7.660;2023-01-16T07:20:54;-2.00;91.20
42841;DHT22;28491;46.898;7.660;2023-01-16T07:23:42;-1.90;91.30
42841;DHT22;28491;46.898;7.660;2023-01-16T07:26:10;-1.80;90.80
42841;DHT22;28491;46.898;7.660;2023-01-16T07:28:36;-1.70;90.20
42841;DHT22;28491;46.898;7.660;2023-01-16T07:31:02;-1.80;89.10
42841;DHT22;28491;46.898;7.660;2023-01-16T07:33:29;-1.80;89.10
42841;DHT22;28491;46.898;7.660;2023-01-16T07:35:55;-1.80;88.90
42841;DHT22;28491;46.898;7.660;2023-01-16T07:38:20;-1.70;90.00
42841;DHT22;28491;46.898;7.660;2023-01-16T07:40:46;-1.80;87.90
42841;DHT22;28491;46.898;7.660;2023-01-16T07:43:11;-1.80;88.10
42841;DHT22;28491;46.898;7.660;2023-01-16T07:45:37;-1.80;89.30
42841;DHT22;28491;46.898;7.660;2023-01-16T07:48:03;-1.70;90.10
42841;DHT22;28491;46.898;7.660;2023-01-16T07:50:29;-1.70;90.20
42841;DHT22;28491;46.898;7.660;2023-01-16T07:52:54;-1.60;88.70
42841;DHT22;28491;46.898;7.660;2023-01-16T07:55:20;-1.50;85.20
42841;DHT22;28491;46.898;7.660;2023-01-16T07:57:45;-1.60;81.90
42841;DHT22;28491;46.898;7.660;2023-01-16T08:00:12;-1.50;83.20
42841;DHT22;28491;46.898;7.660;2023-01-16T08:02:39;-1.50;84.20
42841;DHT22;28491;46.898;7.660;2023-01-16T08:05:05;-1.60;85.40
42841;DHT22;28491;46.898;7.660;2023-01-16T08:07:31;-1.50;86.70
42841;DHT22;28491;46.898;7.660;2023-01-16T08:09:56;-1.40;87.70
42841;DHT22;28491;46.898;7.660;2023-01-16T08:12:22;-1.40;88.60
42841;DHT22;28491;46.898;7.660;2023-01-16T08:14:47;-1.30;90.40
42841;DHT22;28491;46.898;7.660;2023-01-16T08:17:13;-1.30;90.50
42841;DHT22;28491;46.898;7.660;2023-01-16T08:19:38;-1.30;88.90
42841;DHT22;28491;46.898;7.660;2023-01-16T08:22:04;-1.20;88.30
42841;DHT22;28491;46.898;7.660;2023-01-16T08:24:29;-1.10;88.80
42841;DHT22;28491;46.898;7.660;2023-01-16T08:26:55;-1.10;90.00
42841;DHT22;28491;46.898;7.660;2023-01-16T08:29:22;-1.10;91.00
42841;DHT22;28491;46.898;7.660;2023-01-16T08:31:47;-1.10;89.50
42841;DHT22;28491;46.898;7.660;2023-01-16T08:34:13;-1.00;89.20
42841;DHT22;28491;46.898;7.660;2023-01-16T08:36:39;-0.80;90.60
42841;DHT22;28491;46.898;7.660;2023-01-16T08:39:04;-0.80;91.10
42841;DHT22;28491;46.898;7.660;2023-01-16T08:41:30;-0.70;89.70
42841;DHT22;28491;46.898;7.660;2023-01-16T08:44:14;-0.60;89.30
42841;DHT22;28491;46.898;7.660;2023-01-16T08:47:02;-0.70;85.70
42841;DHT22;28491;46.898;7.660;2023-01-16T08:49:47;-0.70;84.30
42841;DHT22;28491;46.898;7.660;2023-01-16T08:52:33;-0.70;84.40
42841;DHT22;28491;46.898;7.660;2023-01-16T08:55:00;-0.60;86.10
42841;DHT22;28491;46.898;7.660;2023-01-16T08:57:27;-0.60;88.40
42841;DHT22;28491;46.898;7.660;2023-01-16T08:59:56;-0.50;86.90
42841;DHT22;28491;46.898;7.660;2023-01-16T09:02:22;-0.50;88.30
42841;DHT22;28491;46.898;7.660;2023-01-16T09:04:48;-0.60;87.90
42841;DHT22;28491;46.898;7.660;2023-01-16T09:07:15;-0.60;88.60
42841;DHT22;28491;46.898;7.660;2023-01-16T09:09:40;-0.60;90.80
42841;DHT22;28491;46.898;7.660;2023-01-16T09:12:11;-0.70;91.30
42841;DHT22;28491;46.898;7.660;2023-01-16T09:14:55;-0.70;91.10
42841;DHT22;28491;46.898;7.660;2023-01-16T09:17:22;-0.50;91.50
42841;DHT22;28491;46.898;7.660;2023-01-16T09:19:48;-0.50;91.70
42841;DHT22;28491;46.898;7.660;2023-01-16T09:22:14;-0.40;90.60
42841;DHT22;28491;46.898;7.660;2023-01-16T09:24:39;-0.40;89.20
42841;DHT22;28491;46.898;7.660;2023-01-16T09:27:05;-0.40;87.10
42841;DHT22;28491;46.898;7.660;2023-01-16T09:29:31;-0.40;85.10
42841;DHT22;28491;46.898;7.660;2023-01-16T09:31:57;-0.40;86.60
42841;DHT22;28491;46.898;7.660;2023-01-16T09:34:23;-0.30;85.60
42841;DHT22;28491;46.898;7.660;2023-01-16T09:36:49;-0.30;85.30
42841;DHT22;28491;46.898;7.660;2023-01-16T09:39:14;-0.40;83.50
42841;DHT22;28491;46.898;7.660;2023-01-16T09:45:06;-0.30;84.90
42841;DHT22;28491;46.898;7.660;2023-01-16T09:47:34;-0.30;86.70
42841;DHT22;28491;46.898;7.660;2023-01-16T09:50:13;-0.20;85.90
42841;DHT22;28491;46.898;7.660;2023-01-16T09:52:45;-0.10;83.20
42841;DHT22;28491;46.898;7.660;2023-01-16T09:58:20;-0.10;81.40
42841;DHT22;28491;46.898;7.660;2023-01-16T10:01:07;-0.10;78.60
42841;DHT22;28491;46.898;7.660;2023-01-16T10:03:34;0.00;81.00
42841;DHT22;28491;46.898;7.660;2023-01-16T10:06:27;-0.10;82.60
42841;DHT22;28491;46.898;7.660;2023-01-16T10:12:02;0.00;82.70
42841;DHT22;28491;46.898;7.660;2023-01-16T10:14:44;0.10;82.60
42841;DHT22;28491;46.898;7.660;2023-01-16T10:28:43;0.20;83.40
42841;DHT22;28491;46.898;7.660;2023-01-16T10:31:27;0.20;84.00
42841;DHT22;28491;46.898;7.660;2023-01-16T10:34:15;0.10;82.90
42841;DHT22;28491;46.898;7.660;2023-01-16T10:36:48;0.10;83.60
42841;DHT22;28491;46.898;7.660;2023-01-16T10:39:17;0.20;80.70
42841;DHT22;28491;46.898;7.660;2023-01-16T10:41:55;0.20;83.20
42841;DHT22;28491;46.898;7.660;2023-01-16T10:44:49;0.20;83.30
42841;DHT22;28491;46.898;7.660;2023-01-16T10:47:38;0.20;81.70
42841;DHT22;28491;46.898;7.660;2023-01-16T10:50:23;0.20;81.20
42841;DHT22;28491;46.898;7.660;2023-01-16T10:52:50;0.20;82.60
42841;DHT22;28491;46.898;7.660;2023-01-16T10:55:16;0.30;83.50
42841;DHT22;28491;46.898;7.660;2023-01-16T10:57:57;0.40;86.60
42841;DHT22;28491;46.898;7.660;2023-01-16T11:00:32;0.40;89.10
42841;DHT22;28491;46.898;7.660;2023-01-16T11:03:01;0.50;89.70
42841;DHT22;28491;46.898;7.660;2023-01-16T11:05:35;0.50;90.60
42841;DHT22;28491;46.898;7.660;2023-01-16T11:08:05;0.60;90.40
42841;DHT22;28491;46.898;7.660;2023-01-16T11:10:32;0.60;89.70
42841;DHT22;28491;46.898;7.660;2023-01-16T11:12:59;0.70;87.90
42841;DHT22;28491;46.898;7.660;2023-01-16T11:16:03;0.70;86.50
42841;DHT22;28491;46.898;7.660;2023-01-16T11:18:48;0.80;82.00
42841;DHT22;28491;46.898;7.660;2023-01-16T11:21:17;0.80;76.50
42841;DHT22;28491;46.898;7.660;2023-01-16T11:23:48;0.80;73.30
42841;DHT22;28491;46.898;7.660;2023-01-16T11:26:14;0.80;74.70
42841;DHT22;28491;46.898;7.660;2023-01-16T11:28:43;0.90;73.80
42841;DHT22;28491;46.898;7.660;2023-01-16T11:31:18;1.00;77.00
42841;DHT22;28491;46.898;7.660;2023-01-16T11:33:46;1.00;77.50
42841;DHT22;28491;46.898;7.660;2023-01-16T11:36:16;1.10;79.10
42841;DHT22;28491;46.898;7.660;2023-01-16T11:38:45;1.10;76.20
42841;DHT22;28491;46.898;7.660;2023-01-16T11:41:11;1.20;76.90
42841;DHT22;28491;46.898;7.660;2023-01-16T11:43:36;1.10;78.10
42841;DHT22;28491;46.898;7.660;2023-01-16T11:46:40;1.30;77.20
42841;DHT22;28491;46.898;7.660;2023-01-16T11:49:23;1.20;73.10
42841;DHT22;28491;46.898;7.660;2023-01-16T11:51:51;1.20;70.20
42841;DHT22;28491;46.898;7.660;2023-01-16T11:54:27;1.40;72.10
42841;DHT22;28491;46.898;7.660;2023-01-16T11:59:46;1.70;66.80
42841;DHT22;28491;46.898;7.660;2023-01-16T12:02:49;1.90;68.10
42841;DHT22;28491;46.898;7.660;2023-01-16T12:11:05;2.70;67.50
42841;DHT22;28491;46.898;7.660;2023-01-16T12:33:23;3.00;61.50
42841;DHT22;28491;46.898;7.660;2023-01-16T12:36:26;2.80;60.70
42841;DHT22;28491;46.898;7.660;2023-01-16T12:39:06;2.80;64.10
42841;DHT22;28491;46.898;7.660;2023-01-16T12:45:28;2.70;49.40
42841;DHT22;28491;46.898;7.660;2023-01-16T12:48:07;2.60;55.10
42841;DHT22;28491;46.898;7.660;2023-01-16T13:00:13;2.90;62.90
42841;DHT22;28491;46.898;7.660;2023-01-16T13:02:43;2.90;63.70
42841;DHT22;28491;46.898;7.660;2023-01-16T13:05:17;2.70;61.80
42841;DHT22;28491;46.898;7.660;2023-01-16T13:08:09;2.60;62.50
42841;DHT22;28491;46.898;7.660;2023-01-16T13:10:40;2.60;63.70
42841;DHT22;28491;46.898;7.660;2023-01-16T13:13:26;2.50;64.60
42841;DHT22;28491;46.898;7.660;2023-01-16T13:15:58;2.50;66.40
42841;DHT22;28491;46.898;7.660;2023-01-16T13:18:28;2.50;67.40
42841;DHT22;28491;46.898;7.660;2023-01-16T13:20:59;2.40;71.10
42841;DHT22;28491;46.898;7.660;2023-01-16T13:23:31;2.30;78.80
42841;DHT22;28491;46.898;7.660;2023-01-16T13:26:01;2.30;82.00
42841;DHT22;28491;46.898;7.660;2023-01-16T13:31:34;2.40;79.90
42841;DHT22;28491;46.898;7.660;2023-01-16T13:34:36;2.50;77.90
42841;DHT22;28491;46.898;7.660;2023-01-16T13:42:15;2.70;74.50
42841;DHT22;28491;46.898;7.660;2023-01-16T13:44:45;2.90;79.20
42841;DHT22;28491;46.898;7.660;2023-01-16T13:47:35;2.90;79.20
42841;DHT22;28491;46.898;7.660;2023-01-16T13:52:42;2.80;78.40
42841;DHT22;28491;46.898;7.660;2023-01-16T13:55:26;2.80;78.10
42841;DHT22;28491;46.898;7.660;2023-01-16T13:57:55;2.80;78.30
42841;DHT22;28491;46.898;7.660;2023-01-16T14:00:22;2.80;79.00
42841;DHT22;28491;46.898;7.660;2023-01-16T14:03:24;2.80;78.20
42841;DHT22;28491;46.898;7.660;2023-01-16T14:06:14;2.90;77.00
42841;DHT22;28491;46.898;7.660;2023-01-16T14:09:20;3.00;74.10
42841;DHT22;28491;46.898;7.660;2023-01-16T14:15:20;3.10;73.10
42841;DHT22;28491;46.898;7.660;2023-01-16T14:18:19;3.30;76.30
42841;DHT22;28491;46.898;7.660;2023-01-16T14:20:51;3.40;71.20
42841;DHT22;28491;46.898;7.660;2023-01-16T14:23:29;3.40;69.90
42841;DHT22;28491;46.898;7.660;2023-01-16T14:26:22;3.70;70.10
42841;DHT22;28491;46.898;7.660;2023-01-16T14:28:52;4.00;70.80
42841;DHT22;28491;46.898;7.660;2023-01-16T14:31:24;4.20;67.20
42841;DHT22;28491;46.898;7.660;2023-01-16T14:33:53;4.30;64.00
42841;DHT22;28491;46.898;7.660;2023-01-16T14:36:22;4.40;63.50
42841;DHT22;28491;46.898;7.660;2023-01-16T14:38:49;4.50;60.80
42841;DHT22;28491;46.898;7.660;2023-01-16T14:41:19;4.70;54.60
42841;DHT22;28491;46.898;7.660;2023-01-16T14:47:24;4.80;41.70
42841;DHT22;28491;46.898;7.660;2023-01-16T14:50:15;4.90;31.40
42841;DHT22;28491;46.898;7.660;2023-01-16T14:55:58;4.80;24.10
42841;DHT22;28491;46.898;7.660;2023-01-16T15:01:28;4.70;24.80
42841;DHT22;28491;46.898;7.660;2023-01-16T15:04:15;4.60;19.20
42841;DHT22;28491;46.898;7.660;2023-01-16T15:06:44;4.40;27.80
42841;DHT22;28491;46.898;7.660;2023-01-16T15:09:17;4.30;24.30
42841;DHT22;28491;46.898;7.660;2023-01-16T15:11:58;4.20;33.30
42841;DHT22;28491;46.898;7.660;2023-01-16T15:14:23;4.20;29.70
42841;DHT22;28491;46.898;7.660;2023-01-16T15:20:14;4.10;34.80
42841;DHT22;28491;46.898;7.660;2023-01-16T15:22:59;4.00;28.60
42841;DHT22;28491;46.898;7.660;2023-01-16T15:25:39;4.10;18.30
42841;DHT22;28491;46.898;7.660;2023-01-16T15:30:42;4.00;17.20
42841;DHT22;28491;46.898;7.660;2023-01-16T15:33:22;3.90;16.00
42841;DHT22;28491;46.898;7.660;2023-01-16T15:36:24;3.90;14.40
42841;DHT22;28491;46.898;7.660;2023-01-16T15:38:56;3.80;10.40
42841;DHT22;28491;46.898;7.660;2023-01-16T15:41:29;3.80;3.90
42841;DHT22;28491;46.898;7.660;2023-01-16T15:44:20;3.60;8.60
42841;DHT22;28491;46.898;7.660;2023-01-16T15:47:30;3.60;6.60
42841;DHT22;28491;46.898;7.660;2023-01-16T15:52:33;3.50;1.80
42841;DHT22;28491;46.898;7.660;2023-01-16T15:57:36;3.50;1.30
42841;DHT22;28491;46.898;7.660;2023-01-16T16:00:03;3.50;1.10
42841;DHT22;28491;46.898;7.660;2023-01-16T16:02:30;3.50;1.00
42841;DHT22;28491;46.898;7.660;2023-01-16T16:04:59;3.50;1.00
42841;DHT22;28491;46.898;7.660;2023-01-16T16:07:25;3.50;1.00
42841;DHT22;28491;46.898;7.660;2023-01-16T16:09:54;3.40;1.00
42841;DHT22;28491;46.898;7.660;2023-01-16T16:12:22;3.30;2.30
42841;DHT22;28491;46.898;7.660;2023-01-16T16:14:48;3.30;1.00
42841;DHT22;28491;46.898;7.660;2023-01-16T16:17:34;3.40;1.00
42841;DHT22;28491;46.898;7.660;2023-01-16T16:22:52;3.40;1.00
42841;DHT22;28491;46.898;7.660;2023-01-16T16:25:27;3.50;1.00
42841;DHT22;28491;46.898;7.660;2023-01-16T16:27:54;3.40;1.00
42841;DHT22;28491;46.898;7.660;2023-01-16T16:30:24;3.40;1.00
42841;DHT22;28491;46.898;7.660;2023-01-16T16:32:52;3.40;1.00
42841;DHT22;28491;46.898;7.660;2023-01-16T16:35:34;3.30;1.00
42841;DHT22;28491;46.898;7.660;2023-01-16T16:38:01;3.20;1.00
42841;DHT22;28491;46.898;7.660;2023-01-16T16:40:27;3.20;1.00
42841;DHT22;28491;46.898;7.660;2023-01-16T16:42:57;3.20;1.00
42841;DHT22;28491;46.898;7.660;2023-01-16T16:45:28;3.20;1.00
42841;DHT22;28491;46.898;7.660;2023-01-16T16:48:24;3.20;1.00
42841;DHT22;28491;46.898;7.660;2023-01-16T16:51:10;3.20;1.00
42841;DHT22;28491;46.898;7.660;2023-01-16T16:53:38;3.20;1.00
42841;DHT22;28491;46.898;7.660;2023-01-16T16:56:14;3.20;1.00
42841;DHT22;28491;46.898;7.660;2023-01-16T16:58:46;3.20;1.00
42841;DHT22;28491;46.898;7.660;2023-01-16T17:01:17;3.20;1.00
42841;DHT22;28491;46.898;7.660;2023-01-16T17:03:44;3.10;1.00
42841;DHT22;28491;46.898;7.660;2023-01-16T17:06:17;3.10;1.00
42841;DHT22;28491;46.898;7.660;2023-01-16T17:08:43;3.10;1.00
42841;DHT22;28491;46.898;7.660;2023-01-16T17:11:13;3.20;1.00
42841;DHT22;28491;46.898;7.660;2023-01-16T17:13:39;3.20;1.00
42841;DHT22;28491;46.898;7.660;2023-01-16T17:16:07;3.10;1.00
42841;DHT22;28491;46.898;7.660;2023-01-16T17:18:37;3.10;1.00
42841;DHT22;28491;46.898;7.660;2023-01-16T17:21:03;3.20;1.00
42841;DHT22;28491;46.898;7.660;2023-01-16T17:23:29;3.20;1.00
42841;DHT22;28491;46.898;7.660;2023-01-16T17:25:54;3.30;1.00
42841;DHT22;28491;46.898;7.660;2023-01-16T17:28:20;3.20;1.00
42841;DHT22;28491;46.898;7.660;2023-01-16T17:30:46;3.20;1.00
42841;DHT22;28491;46.898;7.660;2023-01-16T17:33:16;3.10;1.00
42841;DHT22;28491;46.898;7.660;2023-01-16T17:35:46;3.00;1.00
42841;DHT22;28491;46.898;7.660;2023-01-16T17:38:18;3.00;1.00
42841;DHT22;28491;46.898;7.660;2023-01-16T17:40:44;3.00;1.00
42841;DHT22;28491;46.898;7.660;2023-01-16T17:43:18;3.00;1.00
42841;DHT22;28491;46.898;7.660;2023-01-16T17:46:06;3.00;1.00
42841;DHT22;28491;46.898;7.660;2023-01-16T17:48:33;2.90;1.00
42841;DHT22;28491;46.898;7.660;2023-01-16T17:50:58;2.90;1.00
42841;DHT22;28491;46.898;7.660;2023-01-16T17:53:26;2.80;1.00
42841;DHT22;28491;46.898;7.660;2023-01-16T17:55:53;2.80;1.00
42841;DHT22;28491;46.898;7.660;2023-01-16T18:00:59;2.80;1.00
42841;DHT22;28491;46.898;7.660;2023-01-16T18:03:27;2.80;1.00
42841;DHT22;28491;46.898;7.660;2023-01-16T18:05:52;2.80;1.00
42841;DHT22;28491;46.898;7.660;2023-01-16T18:08:18;2.80;1.00
42841;DHT22;28491;46.898;7.660;2023-01-16T18:10:44;2.90;1.00
42841;DHT22;28491;46.898;7.660;2023-01-16T18:13:10;2.90;1.00
42841;DHT22;28491;46.898;7.660;2023-01-16T18:15:56;2.90;1.00
42841;DHT22;28491;46.898;7.660;2023-01-16T18:18:40;2.90;1.00
42841;DHT22;28491;46.898;7.660;2023-01-16T18:21:13;2.80;1.00